createdAt,value
2019-03-16T00:01:37.970Z,98894.38
2019-03-16T00:04:43.162Z,98898.41
2019-03-16T00:07:48.264Z,98900.62
2019-03-16T00:10:53.393Z,98893.38
2019-03-16T00:13:58.599Z,98904.94
2019-03-16T00:17:03.786Z,98892.77
2019-03-16T00:20:08.933Z,98917.66
2019-03-16T00:23:14.120Z,98922.36
2019-03-16T00:26:19.268Z,98925.52
2019-03-16T00:29:24.405Z,98909.49
2019-03-16T00:32:29.559Z,98913.34
2019-03-16T00:35:34.699Z,98918.25
2019-03-16T00:38:39.859Z,98925.05
2019-03-16T00:41:45.041Z,98937.31
2019-03-16T00:44:50.179Z,98939.30
2019-03-16T00:47:55.849Z,98950.26
2019-03-16T00:51:01.048Z,98963.47
2019-03-16T00:54:06.196Z,98965.31
2019-03-16T00:57:11.392Z,98957.77
2019-03-16T01:00:16.808Z,98974.41
2019-03-16T01:03:22.435Z,98987.27
2019-03-16T01:06:27.609Z,98994.73
2019-03-16T01:09:32.762Z,98985.70
2019-03-16T01:12:37.952Z,98980.27
2019-03-16T01:15:43.157Z,99011.14
2019-03-16T01:18:49.646Z,98985.72
2019-03-16T01:21:54.812Z,98980.55
2019-03-16T01:24:59.984Z,98990.16
2019-03-16T01:28:05.150Z,98997.48
2019-03-16T01:31:10.315Z,99004.27
2019-03-16T01:34:15.478Z,99002.24
2019-03-16T01:37:20.596Z,98996.50
2019-03-16T01:40:25.800Z,99006.88
2019-03-16T01:43:31.035Z,99012.45
2019-03-16T01:46:36.190Z,98998.05
2019-03-16T01:49:41.373Z,99012.66
2019-03-16T01:52:46.524Z,99004.75
2019-03-16T01:55:51.691Z,99016.38
2019-03-16T01:58:56.793Z,99014.05
2019-03-16T02:02:01.957Z,99004.56
2019-03-16T02:05:07.465Z,99011.13
2019-03-16T02:08:12.666Z,99019.33
2019-03-16T02:11:17.840Z,99020.61
2019-03-16T02:14:23.020Z,99016.73
2019-03-16T02:17:28.228Z,99015.48
2019-03-16T02:20:33.394Z,99029.16
2019-03-16T02:23:38.540Z,99041.65
2019-03-16T02:26:43.702Z,99031.70
2019-03-16T02:29:48.890Z,99037.09
2019-03-16T02:33:11.009Z,99029.71
2019-03-16T02:36:00.903Z,99027.40
2019-03-16T02:39:07.392Z,99031.09
2019-03-16T02:42:23.539Z,99027.31
2019-03-16T02:45:28.702Z,99031.98
2019-03-16T02:48:33.817Z,99031.98
2019-03-16T02:51:38.995Z,99034.82
2019-03-16T02:54:44.266Z,99036.28
2019-03-16T02:57:49.491Z,99029.54
2019-03-16T03:00:54.639Z,99039.05
2019-03-16T03:03:59.824Z,99039.55
2019-03-16T03:07:04.928Z,99049.47
2019-03-16T03:10:10.122Z,99043.57
2019-03-16T03:13:15.217Z,99055.86
2019-03-16T03:16:20.382Z,99054.67
2019-03-16T03:19:25.575Z,99057.48
2019-03-16T03:22:30.698Z,99052.82
2019-03-16T03:25:35.863Z,99040.56
2019-03-16T03:28:41.006Z,99050.28
2019-03-16T03:31:46.342Z,99046.89
2019-03-16T03:34:51.708Z,99055.73
2019-03-16T03:37:56.909Z,99048.53
2019-03-16T03:41:02.368Z,99041.27
2019-03-16T03:44:07.676Z,99045.12
2019-03-16T03:47:12.860Z,99061.31
2019-03-16T03:50:18.089Z,99057.72
2019-03-16T03:53:23.239Z,99060.11
2019-03-16T03:56:28.527Z,99063.81
2019-03-16T03:59:33.717Z,99056.84
2019-03-16T04:02:40.326Z,99055.33
2019-03-16T04:05:45.426Z,99062.66
2019-03-16T04:08:54.954Z,99065.91
2019-03-16T04:12:00.444Z,99059.20
2019-03-16T04:15:05.736Z,99056.63
2019-03-16T04:18:10.903Z,99054.56
2019-03-16T04:21:16.091Z,99062.80
2019-03-16T04:24:21.334Z,99059.20
2019-03-16T04:27:26.460Z,99062.95
2019-03-16T04:30:31.683Z,99060.28
2019-03-16T04:33:36.815Z,99053.16
2019-03-16T04:36:41.979Z,99062.16
2019-03-16T04:39:47.122Z,99060.91
2019-03-16T04:42:52.288Z,99057.50
2019-03-16T04:45:57.483Z,99053.77
2019-03-16T04:49:02.702Z,99057.61
2019-03-16T04:52:07.858Z,99046.77
2019-03-16T04:55:13.088Z,99044.91
2019-03-16T04:58:18.312Z,99051.27
2019-03-16T05:01:23.560Z,99061.20
2019-03-16T05:04:41.640Z,99064.16
2019-03-16T05:07:35.512Z,99072.44
2019-03-16T05:10:40.660Z,99067.66
2019-03-16T05:13:45.822Z,99071.39
2019-03-16T05:16:51.002Z,99068.27
2019-03-16T05:19:56.141Z,99070.61
2019-03-16T05:23:01.476Z,99072.63
2019-03-16T05:26:06.648Z,99058.68
2019-03-16T05:29:11.838Z,99057.69
2019-03-16T05:32:16.988Z,99069.23
2019-03-16T05:35:22.202Z,99074.78
2019-03-16T05:38:27.408Z,99077.23
2019-03-16T05:41:33.474Z,99081.14
2019-03-16T05:44:38.683Z,99083.02
2019-03-16T05:47:43.822Z,99081.08
2019-03-16T05:50:49.394Z,99078.89
2019-03-16T05:53:54.594Z,99077.23
2019-03-16T05:56:59.741Z,99082.30
2019-03-16T06:00:09.463Z,99083.51
2019-03-16T06:03:12.958Z,99081.36
2019-03-16T06:06:18.109Z,99090.40
2019-03-16T06:09:23.317Z,99094.56
2019-03-16T06:12:28.625Z,99084.48
2019-03-16T06:15:35.232Z,99096.48
2019-03-16T06:18:40.592Z,99095.69
2019-03-16T06:21:45.801Z,99099.36
2019-03-16T06:24:50.941Z,99091.77
2019-03-16T06:27:56.069Z,99095.95
2019-03-16T06:31:01.210Z,99092.36
2019-03-16T06:34:07.643Z,99090.84
2019-03-16T06:37:12.802Z,99092.65
2019-03-16T06:40:18.005Z,99092.55
2019-03-16T06:43:23.111Z,99096.84
2019-03-16T06:46:28.250Z,99101.73
2019-03-16T06:49:33.392Z,99087.03
2019-03-16T06:52:38.630Z,99086.37
2019-03-16T06:55:43.844Z,99080.11
2019-03-16T06:58:49.032Z,99087.92
2019-03-16T07:01:54.123Z,99092.48
2019-03-16T07:04:59.299Z,99090.80
2019-03-16T07:08:04.617Z,99086.24
2019-03-16T07:11:09.830Z,99084.94
2019-03-16T07:14:16.421Z,99062.13
2019-03-16T07:17:21.603Z,99070.75
2019-03-16T07:20:26.743Z,99072.23
2019-03-16T07:23:32.066Z,99079.72
2019-03-16T07:26:37.273Z,99087.30
2019-03-16T07:29:42.495Z,99087.99
2019-03-16T07:32:47.600Z,99091.03
2019-03-16T07:35:52.741Z,99098.25
2019-03-16T07:38:57.905Z,99090.19
2019-03-16T07:42:03.109Z,99099.47
2019-03-16T07:45:09.249Z,99090.00
2019-03-16T07:48:14.669Z,99108.02
2019-03-16T07:51:19.815Z,99123.98
2019-03-16T07:54:24.979Z,99102.76
2019-03-16T07:57:39.519Z,99121.34
2019-03-16T08:00:37.121Z,99107.55
2019-03-16T08:03:42.400Z,99124.52
2019-03-16T08:06:47.581Z,99122.41
2019-03-16T08:09:53.890Z,99131.73
2019-03-16T08:12:59.037Z,99121.63
2019-03-16T08:16:04.219Z,99126.55
2019-03-16T08:19:09.365Z,99120.78
2019-03-16T08:22:14.522Z,99135.08
2019-03-16T08:25:20.745Z,99127.73
2019-03-16T08:28:25.965Z,99125.10
2019-03-16T08:31:31.101Z,99134.38
2019-03-16T08:34:37.382Z,99130.78
2019-03-16T08:37:42.514Z,99135.22
2019-03-16T08:40:47.644Z,99137.92
2019-03-16T08:43:52.752Z,99124.96
2019-03-16T08:46:57.910Z,99118.02
2019-03-16T08:50:03.130Z,99141.80
2019-03-16T08:53:08.270Z,99143.33
2019-03-16T08:56:13.526Z,99137.92
2019-03-16T08:59:24.318Z,99146.98
2019-03-16T09:02:28.461Z,99136.18
2019-03-16T09:05:35.353Z,99132.77
2019-03-16T09:08:40.430Z,99144.59
2019-03-16T09:11:45.664Z,99150.41
2019-03-16T09:14:50.853Z,99141.05
2019-03-16T09:17:56.049Z,99144.14
2019-03-16T09:21:01.281Z,99133.06
2019-03-16T09:24:06.492Z,99145.23
2019-03-16T09:27:11.613Z,99141.33
2019-03-16T09:30:16.779Z,99135.33
2019-03-16T09:33:22.220Z,99147.09
2019-03-16T09:36:27.432Z,99157.83
2019-03-16T09:39:32.592Z,99159.94
2019-03-16T09:42:37.727Z,99165.22
2019-03-16T09:45:42.856Z,99161.92
2019-03-16T09:48:48.018Z,99161.83
2019-03-16T09:51:53.125Z,99175.19
2019-03-16T09:54:58.438Z,99175.03
2019-03-16T09:58:03.655Z,99184.56
2019-03-16T10:01:08.821Z,99184.09
2019-03-16T10:04:13.975Z,99182.34
2019-03-16T10:07:19.200Z,99211.55
2019-03-16T10:10:24.365Z,99216.94
2019-03-16T10:13:29.511Z,99206.50
2019-03-16T10:16:34.689Z,99210.94
2019-03-16T10:19:39.887Z,99210.95
2019-03-16T10:22:45.048Z,99215.05
2019-03-16T10:25:50.223Z,99215.40
2019-03-16T10:28:55.365Z,99212.17
2019-03-16T10:32:00.544Z,99212.39
2019-03-16T10:35:06.233Z,99189.86
2019-03-16T10:38:11.440Z,99191.91
2019-03-16T10:41:16.743Z,99173.83
2019-03-16T10:44:21.919Z,99173.83
2019-03-16T10:47:26.987Z,99171.66
2019-03-16T10:50:32.201Z,99158.08
2019-03-16T10:53:37.364Z,99160.33
2019-03-16T10:56:42.540Z,99159.99
2019-03-16T10:59:47.794Z,99140.48
2019-03-16T11:02:52.928Z,99131.86
2019-03-16T11:05:58.088Z,99137.36
2019-03-16T11:09:03.702Z,99137.16
2019-03-16T11:12:08.834Z,99133.90
2019-03-16T11:15:14.163Z,99144.39
2019-03-16T11:18:19.305Z,99133.95
2019-03-16T11:21:24.448Z,99133.25
2019-03-16T11:24:29.697Z,99112.05
2019-03-16T11:27:34.922Z,99129.32
2019-03-16T11:30:40.191Z,99111.25
2019-03-16T11:33:48.158Z,99126.24
2019-03-16T11:36:52.322Z,99130.81
2019-03-16T11:39:57.443Z,99137.08
2019-03-16T11:43:02.701Z,99146.53
2019-03-16T11:46:07.801Z,99127.04
2019-03-16T11:49:13.109Z,99142.81
2019-03-16T11:52:18.226Z,99142.84
2019-03-16T11:55:23.423Z,99131.65
2019-03-16T11:58:28.588Z,99140.33
2019-03-16T12:01:33.721Z,99146.33
2019-03-16T12:04:38.861Z,99134.13
2019-03-16T12:07:44.039Z,99134.86
2019-03-16T12:10:49.223Z,99120.66
2019-03-16T12:13:54.374Z,99120.64
2019-03-16T12:16:59.492Z,99122.17
2019-03-16T12:20:05.293Z,99132.21
2019-03-16T12:23:10.495Z,99140.93
2019-03-16T12:26:15.937Z,99120.80
2019-03-16T12:29:33.185Z,99134.13
2019-03-16T12:32:27.943Z,99108.25
2019-03-16T12:35:33.109Z,99109.31
2019-03-16T12:38:38.242Z,99108.27
2019-03-16T12:41:43.317Z,99094.40
2019-03-16T12:44:48.503Z,99088.30
2019-03-16T12:47:53.697Z,99093.63
2019-03-16T12:50:58.829Z,99087.55
2019-03-16T12:54:03.943Z,99081.59
2019-03-16T12:57:09.066Z,99088.35
2019-03-16T13:00:14.333Z,99081.13
2019-03-16T13:03:19.490Z,99084.03
2019-03-16T13:06:24.600Z,99070.29
2019-03-16T13:09:29.834Z,99078.03
2019-03-16T13:12:34.930Z,99075.69
2019-03-16T13:15:40.093Z,99064.48
2019-03-16T13:18:45.254Z,99057.33
2019-03-16T13:21:50.452Z,99053.08
2019-03-16T13:24:55.560Z,99054.49
2019-03-16T13:28:00.678Z,99052.25
2019-03-16T13:31:05.854Z,99048.34
2019-03-16T13:34:11.005Z,99035.64
2019-03-16T13:37:16.134Z,99051.26
2019-03-16T13:40:21.345Z,99049.45
2019-03-16T13:43:26.518Z,99058.20
2019-03-16T13:46:31.652Z,99058.53
2019-03-16T13:49:36.779Z,99056.23
2019-03-16T13:52:41.955Z,99042.91
2019-03-16T13:55:47.124Z,99038.83
2019-03-16T13:58:52.270Z,99040.31
2019-03-16T14:01:57.395Z,99036.86
2019-03-16T14:05:02.740Z,99046.36
2019-03-16T14:08:08.148Z,99051.95
2019-03-16T14:11:13.556Z,99033.38
2019-03-16T14:14:18.668Z,99026.81
2019-03-16T14:17:23.812Z,99041.58
2019-03-16T14:20:28.942Z,99031.77
2019-03-16T14:23:34.306Z,99028.75
2019-03-16T14:26:42.639Z,99022.27
2019-03-16T14:29:46.238Z,99044.75
2019-03-16T14:32:51.517Z,99022.14
2019-03-16T14:35:56.794Z,99031.19
2019-03-16T14:39:01.962Z,99034.35
2019-03-16T14:42:07.242Z,99046.25
2019-03-16T14:45:12.449Z,99042.97
2019-03-16T14:48:17.758Z,99030.16
2019-03-16T14:51:24.762Z,99025.27
2019-03-16T14:54:29.831Z,99018.67
2019-03-16T14:57:34.990Z,99028.16
2019-03-16T15:00:40.237Z,99017.08
2019-03-16T15:03:45.318Z,99006.45
2019-03-16T15:06:50.514Z,99014.78
2019-03-16T15:09:55.584Z,99005.23
2019-03-16T15:13:00.775Z,99015.16
2019-03-16T15:16:05.883Z,99017.49
2019-03-16T15:19:11.069Z,99013.77
2019-03-16T15:22:17.251Z,99015.72
2019-03-16T15:25:22.414Z,99002.98
2019-03-16T15:28:27.633Z,99005.09
2019-03-16T15:31:32.828Z,99007.12
2019-03-16T15:34:37.994Z,99003.61
2019-03-16T15:37:43.093Z,99002.05
2019-03-16T15:40:48.199Z,98994.59
2019-03-16T15:43:53.358Z,98984.61
2019-03-16T15:46:59.385Z,98981.61
2019-03-16T15:50:04.989Z,98980.63
2019-03-16T15:53:10.120Z,98983.31
2019-03-16T15:56:15.287Z,98988.28
2019-03-16T15:59:20.567Z,98980.63
2019-03-16T16:02:25.729Z,98985.59
2019-03-16T16:05:30.879Z,98979.39
2019-03-16T16:08:36.049Z,98980.63
2019-03-16T16:11:41.208Z,98985.05
2019-03-16T16:14:46.354Z,98986.88
2019-03-16T16:17:51.489Z,98970.43
2019-03-16T16:20:56.644Z,98969.67
2019-03-16T16:24:01.796Z,98959.04
2019-03-16T16:27:06.932Z,98957.31
2019-03-16T16:30:14.082Z,98944.36
2019-03-16T16:33:19.310Z,98948.25
2019-03-16T16:36:24.425Z,98942.50
2019-03-16T16:39:29.621Z,98944.09
2019-03-16T16:42:34.694Z,98944.69
2019-03-16T16:45:39.838Z,98941.51
2019-03-16T16:48:45.057Z,98943.41
2019-03-16T16:51:50.251Z,98949.87
2019-03-16T16:54:55.419Z,98949.83
2019-03-16T16:58:00.608Z,98944.31
2019-03-16T17:01:06.855Z,98934.86
2019-03-16T17:04:12.228Z,98938.66
2019-03-16T17:07:17.524Z,98934.94
2019-03-16T17:10:22.630Z,98931.27
2019-03-16T17:13:27.803Z,98929.05
2019-03-16T17:16:32.953Z,98922.97
2019-03-16T17:19:38.111Z,98929.58
2019-03-16T17:22:43.386Z,98930.98
2019-03-16T17:25:48.559Z,98926.34
2019-03-16T17:28:53.797Z,98927.58
2019-03-16T17:31:59.017Z,98918.18
2019-03-16T17:35:04.366Z,98917.00
2019-03-16T17:38:09.574Z,98914.13
2019-03-16T17:41:14.704Z,98910.90
2019-03-16T17:44:19.923Z,98909.92
2019-03-16T17:47:25.167Z,98909.22
2019-03-16T17:50:30.338Z,98904.89
2019-03-16T17:53:35.507Z,98901.48
2019-03-16T17:56:40.657Z,98897.95
2019-03-16T17:59:45.787Z,98902.66
2019-03-16T18:02:52.303Z,98894.38
2019-03-16T18:05:57.977Z,98893.20
2019-03-16T18:09:03.408Z,98891.94
2019-03-16T18:12:09.050Z,98900.69
2019-03-16T18:15:14.236Z,98897.05
2019-03-16T18:18:19.484Z,98897.47
2019-03-16T18:21:24.669Z,98890.35
2019-03-16T18:24:29.926Z,98891.59
2019-03-16T18:27:35.143Z,98889.08
2019-03-16T18:30:40.329Z,98885.27
2019-03-16T18:33:45.532Z,98883.32
2019-03-16T18:36:50.721Z,98887.55
2019-03-16T18:39:55.969Z,98882.16
2019-03-16T18:43:01.192Z,98883.22
2019-03-16T18:46:06.341Z,98874.53
2019-03-16T18:49:11.454Z,98873.55
2019-03-16T18:52:16.602Z,98869.10
2019-03-16T18:55:21.748Z,98868.02
2019-03-16T18:58:36.533Z,98861.20
2019-03-16T19:01:33.855Z,98855.05
2019-03-16T19:04:40.027Z,98861.14
2019-03-16T19:07:45.244Z,98861.56
2019-03-16T19:10:53.079Z,98862.67
2019-03-16T19:13:57.314Z,98859.17
2019-03-16T19:17:02.453Z,98855.06
2019-03-16T19:20:08.750Z,98851.39
2019-03-16T19:23:13.882Z,98847.44
2019-03-16T19:26:19.103Z,98843.25
2019-03-16T19:29:24.534Z,98835.84
2019-03-16T19:32:33.933Z,98835.30
2019-03-16T19:35:36.681Z,98832.14
2019-03-16T19:38:41.801Z,98832.87
2019-03-16T19:41:46.948Z,98829.75
2019-03-16T19:44:52.170Z,98826.67
2019-03-16T19:47:57.334Z,98824.61
2019-03-16T19:51:04.283Z,98829.14
2019-03-16T19:54:09.336Z,98825.70
2019-03-16T19:57:16.144Z,98819.00
2019-03-16T20:00:21.512Z,98817.78
2019-03-16T20:03:26.679Z,98814.22
2019-03-16T20:06:31.854Z,98818.91
2019-03-16T20:09:37.114Z,98811.64
2019-03-16T20:12:42.284Z,98809.63
2019-03-16T20:15:47.478Z,98807.67
2019-03-16T20:18:52.630Z,98811.45
2019-03-16T20:21:57.852Z,98796.30
2019-03-16T20:25:03.061Z,98793.91
2019-03-16T20:28:08.374Z,98786.11
2019-03-16T20:31:13.546Z,98789.31
2019-03-16T20:34:18.833Z,98793.62
2019-03-16T20:37:24.125Z,98796.65
2019-03-16T20:40:29.476Z,98785.52
2019-03-16T20:43:34.587Z,98788.59
2019-03-16T20:46:47.126Z,98784.22
2019-03-16T20:49:52.328Z,98779.66
2019-03-16T20:52:57.559Z,98771.53
2019-03-16T20:56:02.825Z,98768.56
2019-03-16T20:59:07.945Z,98760.94
2019-03-16T21:02:13.117Z,98751.83
2019-03-16T21:05:18.333Z,98746.93
2019-03-16T21:08:23.596Z,98752.71
2019-03-16T21:11:28.855Z,98749.30
2019-03-16T21:14:34.060Z,98745.11
2019-03-16T21:17:39.305Z,98752.30
2019-03-16T21:20:44.500Z,98752.18
2019-03-16T21:23:49.630Z,98750.87
2019-03-16T21:26:54.833Z,98741.38
2019-03-16T21:30:00.023Z,98734.75
2019-03-16T21:33:05.248Z,98735.14
2019-03-16T21:36:10.475Z,98741.31
2019-03-16T21:39:16.952Z,98736.56
2019-03-16T21:42:22.363Z,98726.51
2019-03-16T21:45:27.583Z,98724.20
2019-03-16T21:48:32.679Z,98716.83
2019-03-16T21:51:37.830Z,98715.17
2019-03-16T21:54:42.939Z,98707.75
2019-03-16T21:57:48.113Z,98709.41
2019-03-16T22:00:53.302Z,98699.04
2019-03-16T22:03:58.482Z,98698.48
2019-03-16T22:07:03.728Z,98700.05
2019-03-16T22:10:08.894Z,98699.27
2019-03-16T22:13:14.004Z,98696.14
2019-03-16T22:16:20.013Z,98695.65
2019-03-16T22:19:25.134Z,98690.37
2019-03-16T22:22:30.283Z,98684.53
2019-03-16T22:25:35.421Z,98690.80
2019-03-16T22:28:40.588Z,98680.33
2019-03-16T22:31:45.733Z,98678.59
2019-03-16T22:34:50.844Z,98669.96
2019-03-16T22:37:55.983Z,98668.11
2019-03-16T22:41:01.145Z,98664.94
2019-03-16T22:44:06.228Z,98658.56
2019-03-16T22:47:11.408Z,98659.17
2019-03-16T22:50:16.478Z,98654.77
2019-03-16T22:53:21.690Z,98646.78
2019-03-16T22:56:26.827Z,98646.56
2019-03-16T22:59:31.945Z,98632.38
2019-03-16T23:02:37.127Z,98629.81
2019-03-16T23:05:42.384Z,98628.30
2019-03-16T23:08:47.452Z,98635.88
2019-03-16T23:11:52.694Z,98638.13
2019-03-16T23:14:57.873Z,98629.12
2019-03-16T23:18:03.070Z,98635.16
2019-03-16T23:21:08.210Z,98622.19
2019-03-16T23:24:13.351Z,98620.86
2019-03-16T23:27:18.550Z,98622.45
2019-03-16T23:30:23.735Z,98617.59
2019-03-16T23:33:28.996Z,98615.73
2019-03-16T23:36:34.207Z,98612.73
2019-03-16T23:39:39.322Z,98600.19
2019-03-16T23:42:44.441Z,98606.41
2019-03-16T23:45:49.628Z,98594.66
2019-03-16T23:48:54.890Z,98589.70
2019-03-16T23:52:00.009Z,98588.20
2019-03-16T23:55:05.181Z,98587.45
2019-03-16T23:58:10.363Z,98572.56
